Time;durP1;ratioP1;P1;durP2;ratioP2;P2;SDS_P1;SDS_P2;PMS_P1;PMS_P2;Temp;Humidity;BMP_temperature;BMP_pressure;BME280_temperature;BME280_humidity;BME280_pressure;Samples;Min_cycle;Max_cycle;Signal;HPM_P1;HPM_P2
2024/02/08 00:01:12;;;;;;;;;;;;;;;10.21;49.46;99597.16;4935816;28;99625;-68
2024/02/08 00:03:38;;;;;;;;;;;;;;;10.20;49.66;99600.94;4952547;28;117775;-65
2024/02/08 00:06:05;;;;;;;;;;;;;;;10.19;49.47;99596.63;4949974;28;98112;-64
2024/02/08 00:08:31;;;;;;;;;;;;;;;10.18;49.50;99600.44;4941570;28;98217;-65
2024/02/08 00:10:57;;;;;;;;;;;;;;;10.17;49.55;99595.31;4937927;28;127232;-68
2024/02/08 00:13:23;;;;;;;;;;;;;;;10.15;49.67;99600.19;4938912;28;98439;-65
2024/02/08 00:15:49;;;;;;;;;;;;;;;10.13;49.67;99595.06;4941836;28;98146;-68
2024/02/08 00:18:18;;;;;;;;;;;;;;;10.12;49.58;99595.38;4950733;28;123888;-68
2024/02/08 00:20:44;;;;;;;;;;;;;;;10.10;49.30;99590.28;4941680;28;98953;-69
2024/02/08 00:23:10;;;;;;;;;;;;;;;10.08;49.47;99589.75;4909451;28;98594;-69
2024/02/08 00:25:36;;;;;;;;;;;;;;;10.06;49.03;99600.00;4903280;28;98898;-65
2024/02/08 00:28:02;;;;;;;;;;;;;;;10.06;49.08;99600.81;4953475;28;98636;-69
2024/02/08 00:30:28;;;;;;;;;;;;;;;10.03;49.07;99598.69;4942581;28;100481;-68
2024/02/08 00:32:54;;;;;;;;;;;;;;;10.03;49.18;99605.97;4957639;28;98631;-68
2024/02/08 00:35:22;;;;;;;;;;;;;;;10.02;49.35;99588.19;4953290;28;130361;-68
2024/02/08 00:37:48;;;;;;;;;;;;;;;10.01;49.25;99600.84;4937244;28;98929;-69
2024/02/08 00:40:17;;;;;;;;;;;;;;;9.99;49.26;99594.97;4948344;28;99174;-69
2024/02/08 00:42:46;;;;;;;;;;;;;;;9.98;49.65;99590.66;4936647;28;97986;-68
2024/02/08 00:45:12;;;;;;;;;;;;;;;9.97;49.25;99586.34;4940868;28;98549;-65
2024/02/08 00:47:38;;;;;;;;;;;;;;;9.96;49.09;99592.81;4946196;28;98041;-65
2024/02/08 00:50:05;;;;;;;;;;;;;;;9.95;49.33;99596.63;4956022;28;99680;-69
2024/02/08 00:52:32;;;;;;;;;;;;;;;9.94;49.24;99595.00;4950726;28;97971;-68
2024/02/08 00:55:01;;;;;;;;;;;;;;;9.95;49.52;99603.91;4951277;28;98332;-65
2024/02/08 00:57:29;;;;;;;;;;;;;;;9.94;49.39;99592.31;4939553;28;99158;-64
2024/02/08 00:59:55;;;;;;;;;;;;;;;9.94;49.70;99595.00;4941322;28;98361;-69
2024/02/08 01:02:21;;;;;;;;;;;;;;;9.93;49.11;99588.00;4935907;28;97969;-68
2024/02/08 01:04:48;;;;;;;;;;;;;;;9.93;49.60;99574.53;4924592;28;127152;-69
2024/02/08 01:07:15;;;;;;;;;;;;;;;9.94;49.13;99575.34;4922205;28;98793;-65
2024/02/08 01:09:41;;;;;;;;;;;;;;;9.93;49.56;99569.16;4937881;28;98248;-68
2024/02/08 01:12:08;;;;;;;;;;;;;;;9.94;49.22;99569.97;4963993;27;98472;-65
2024/02/08 01:14:34;;;;;;;;;;;;;;;9.94;49.38;99567.28;4953814;28;98660;-65
2024/02/08 01:17:00;;;;;;;;;;;;;;;9.94;49.10;99568.09;4935808;28;98062;-65
2024/02/08 01:19:26;;;;;;;;;;;;;;;9.94;49.57;99575.34;4925321;28;99656;-68
2024/02/08 01:21:56;;;;;;;;;;;;;;;9.93;49.64;99579.13;4948861;28;116155;-68
2024/02/08 01:24:23;;;;;;;;;;;;;;;9.94;49.14;99583.41;4947199;28;99503;-68
2024/02/08 01:26:49;;;;;;;;;;;;;;;9.94;49.31;99575.34;4931759;28;108057;-69
2024/02/08 01:29:15;;;;;;;;;;;;;;;9.94;49.09;99576.16;4921041;28;103717;-65
2024/02/08 01:31:41;;;;;;;;;;;;;;;9.94;49.39;99567.28;4921487;28;99772;-65
2024/02/08 01:34:08;;;;;;;;;;;;;;;9.94;49.27;99568.09;4936752;28;99158;-65
2024/02/08 01:36:35;;;;;;;;;;;;;;;9.94;49.65;99567.28;4903210;28;98179;-69
2024/02/08 01:39:04;;;;;;;;;;;;;;;9.94;49.14;99551.94;4941732;28;98339;-64
2024/02/08 01:41:31;;;;;;;;;;;;;;;9.95;49.49;99558.13;4939905;28;97966;-68
2024/02/08 01:44:03;;;;;;;;;;;;;;;9.95;48.96;99558.13;4967454;27;99896;-65
2024/02/08 01:46:31;;;;;;;;;;;;;;;9.93;49.13;99553.00;4942660;28;98191;-65
2024/02/08 01:48:57;;;;;;;;;;;;;;;9.93;48.99;99553.00;4920062;28;97886;-64
2024/02/08 01:51:24;;;;;;;;;;;;;;;9.93;48.88;99547.63;4921934;28;110619;-65
2024/02/08 01:53:51;;;;;;;;;;;;;;;9.93;49.18;99536.84;4935389;28;98682;-68
2024/02/08 01:56:17;;;;;;;;;;;;;;;9.93;49.53;99536.06;4930071;28;97871;-65
2024/02/08 01:58:44;;;;;;;;;;;;;;;9.92;49.15;99532.56;4925487;28;107052;-68
2024/02/08 02:01:10;;;;;;;;;;;;;;;9.92;49.23;99532.56;4955198;28;98164;-65
2024/02/08 02:03:36;;;;;;;;;;;;;;;9.91;49.07;99532.88;4950055;28;98285;-64
2024/02/08 02:06:07;;;;;;;;;;;;;;;9.91;48.91;99530.16;4939332;28;98324;-65
2024/02/08 02:08:33;;;;;;;;;;;;;;;9.91;49.31;99535.56;4922262;28;98405;-68
2024/02/08 02:11:01;;;;;;;;;;;;;;;9.90;49.38;99526.66;4951598;28;117073;-65
2024/02/08 02:13:27;;;;;;;;;;;;;;;9.90;48.99;99523.16;4922216;28;98129;-66
2024/02/08 02:15:53;;;;;;;;;;;;;;;9.89;48.99;99525.06;4934151;28;98511;-68
2024/02/08 02:18:19;;;;;;;;;;;;;;;9.90;49.25;99515.09;4963569;27;123696;-68
2024/02/08 02:20:45;;;;;;;;;;;;;;;9.89;49.32;99519.66;4925115;28;98287;-65
2024/02/08 02:23:11;;;;;;;;;;;;;;;9.89;48.93;99516.19;4938338;28;99016;-65
2024/02/08 02:25:38;;;;;;;;;;;;;;;9.88;49.08;99518.06;4946503;28;107307;-68
2024/02/08 02:28:06;;;;;;;;;;;;;;;9.88;48.92;99520.75;4922544;28;98235;-68
2024/02/08 02:30:34;;;;;;;;;;;;;;;9.88;49.45;99520.75;4938821;28;98346;-65
2024/02/08 02:33:00;;;;;;;;;;;;;;;9.87;48.94;99510.28;4957166;28;99725;-69
2024/02/08 02:35:28;;;;;;;;;;;;;;;9.87;49.00;99516.47;4922274;28;124430;-65
2024/02/08 02:37:54;;;;;;;;;;;;;;;9.86;49.01;99517.53;4921365;28;98414;-68
2024/02/08 02:40:23;;;;;;;;;;;;;;;9.82;49.39;99514.66;4959288;28;98845;-65
2024/02/08 02:42:50;;;;;;;;;;;;;;;9.84;49.01;99508.97;4925944;28;98138;-65
2024/02/08 02:45:21;;;;;;;;;;;;;;;9.82;49.47;99505.75;4955067;28;99063;-65
2024/02/08 02:47:49;;;;;;;;;;;;;;;9.79;49.22;99500.94;4950773;28;99031;-68
2024/02/08 02:50:17;;;;;;;;;;;;;;;9.76;49.25;99506.91;4938435;28;98264;-68
2024/02/08 02:52:44;;;;;;;;;;;;;;;9.73;49.58;99502.88;4957097;28;98410;-68
2024/02/08 02:55:11;;;;;;;;;;;;;;;9.70;49.34;99503.44;4936759;28;99247;-70
2024/02/08 02:57:38;;;;;;;;;;;;;;;9.69;49.74;99503.72;4905558;28;98431;-68
2024/02/08 03:00:15;;;;;;;;;;;;;;;9.69;49.15;99511.81;4901917;28;98180;-68
2024/02/08 03:02:42;;;;;;;;;;;;;;;9.68;49.15;99507.53;4936647;28;98403;-65
2024/02/08 03:05:08;;;;;;;;;;;;;;;9.66;49.39;99505.09;4948008;28;98061;-65
2024/02/08 03:07:35;;;;;;;;;;;;;;;9.64;49.30;99501.91;4930565;28;98214;-68
2024/02/08 03:10:01;;;;;;;;;;;;;;;9.64;49.54;99496.53;4956960;28;99787;-64
2024/02/08 03:12:27;;;;;;;;;;;;;;;9.64;49.14;99496.53;4956374;28;105609;-65
2024/02/08 03:15:00;;;;;;;;;;;;;;;9.61;49.62;99483.63;4925653;28;98891;-68
2024/02/08 03:17:26;;;;;;;;;;;;;;;9.63;49.33;99492.22;4938783;28;98693;-68
2024/02/08 03:19:52;;;;;;;;;;;;;;;9.61;49.28;99489.00;4953336;28;98159;-68
2024/02/08 03:22:19;;;;;;;;;;;;;;;9.61;49.25;99480.13;4941753;28;97912;-68
2024/02/08 03:24:45;;;;;;;;;;;;;;;9.61;49.17;99482.81;4956124;28;98057;-68
2024/02/08 03:27:16;;;;;;;;;;;;;;;9.61;49.53;99482.81;4938263;28;99529;-68
2024/02/08 03:29:42;;;;;;;;;;;;;;;9.60;48.92;99484.72;4927219;28;98357;-64
2024/02/08 03:32:08;;;;;;;;;;;;;;;9.60;49.09;99492.78;4939088;28;104778;-65
2024/02/08 03:34:35;;;;;;;;;;;;;;;9.59;49.52;99486.63;4935978;28;98998;-68
2024/02/08 03:37:06;;;;;;;;;;;;;;;9.59;49.29;99485.81;4952248;28;98445;-65
2024/02/08 03:39:32;;;;;;;;;;;;;;;9.58;49.29;99482.28;4920428;28;98108;-68
2024/02/08 03:41:59;;;;;;;;;;;;;;;9.59;49.06;99485.81;4950432;28;100240;-68
2024/02/08 03:44:29;;;;;;;;;;;;;;;9.58;48.70;99478.81;4954991;28;100440;-64
2024/02/08 03:46:56;;;;;;;;;;;;;;;9.59;48.97;99477.75;4939192;28;98132;-68
2024/02/08 03:49:25;;;;;;;;;;;;;;;9.58;49.19;99470.72;4967689;27;98665;-65
2024/02/08 03:51:53;;;;;;;;;;;;;;;9.58;49.35;99478.81;4967405;27;99636;-65
2024/02/08 03:54:19;;;;;;;;;;;;;;;9.58;48.78;99476.91;4943819;28;98232;-64
2024/02/08 03:56:49;;;;;;;;;;;;;;;9.57;49.51;99471.81;4921805;28;98234;-65
2024/02/08 03:59:28;;;;;;;;;;;;;;;9.57;48.87;99469.94;4954547;28;98174;-65
2024/02/08 04:02:01;;;;;;;;;;;;;;;9.57;48.86;99469.94;4925401;28;98192;-68
2024/02/08 04:04:49;;;;;;;;;;;;;;;9.56;49.50;99471.03;4939559;28;98132;-64
2024/02/08 04:07:20;;;;;;;;;;;;;;;9.56;49.02;99471.03;4938329;28;98014;-65
2024/02/08 04:09:56;;;;;;;;;;;;;;;9.57;49.51;99472.63;4950679;28;97955;-65
2024/02/08 04:53:45;;;;;;;;;;;;;;;9.50;49.33;99477.53;4938353;28;98211;-68
2024/02/08 04:56:11;;;;;;;;;;;;;;;9.50;49.18;99476.72;4938944;28;98164;-68
2024/02/08 04:58:41;;;;;;;;;;;;;;;9.51;49.14;99478.34;4951685;28;98027;-68
2024/02/08 05:01:10;;;;;;;;;;;;;;;9.50;49.25;99479.44;4923300;28;98833;-68
2024/02/08 05:03:42;;;;;;;;;;;;;;;9.51;48.97;99486.41;4942066;28;98212;-65
2024/02/08 05:06:14;;;;;;;;;;;;;;;9.50;49.58;99488.28;4956489;28;98697;-68
2024/02/08 05:08:41;;;;;;;;;;;;;;;9.49;49.46;99480.53;4926634;28;98007;-64
2024/02/08 05:11:14;;;;;;;;;;;;;;;9.49;49.40;99475.13;4938685;28;98217;-65
2024/02/08 05:13:41;;;;;;;;;;;;;;;9.48;49.28;99470.84;4966747;27;98582;-68
2024/02/08 05:16:16;;;;;;;;;;;;;;;9.50;49.48;99476.72;4929057;28;99239;-65
2024/02/08 05:18:48;;;;;;;;;;;;;;;9.56;49.69;99472.94;4947752;28;99496;-65
2024/02/08 05:21:15;;;;;;;;;;;;;;;9.63;49.10;99475.25;4938971;28;98262;-65
2024/02/08 05:23:41;;;;;;;;;;;;;;;9.67;49.49;99479.81;4921697;28;98428;-65
2024/02/08 05:26:11;;;;;;;;;;;;;;;9.72;49.24;99470.88;4956895;28;98639;-65
2024/02/08 05:28:37;;;;;;;;;;;;;;;9.76;49.28;99467.31;4950285;28;108964;-65
2024/02/08 05:31:04;;;;;;;;;;;;;;;9.80;48.89;99454.09;4942302;28;98752;-65
2024/02/08 05:33:32;;;;;;;;;;;;;;;9.82;49.39;99450.03;4940740;28;98128;-69
2024/02/08 05:35:59;;;;;;;;;;;;;;;9.84;49.46;99455.13;4931462;28;98968;-68
2024/02/08 05:38:25;;;;;;;;;;;;;;;9.85;49.27;99445.97;4921809;28;98484;-65
2024/02/08 05:40:52;;;;;;;;;;;;;;;9.87;49.15;99448.38;4933935;28;99429;-69
2024/02/08 05:43:27;;;;;;;;;;;;;;;9.88;49.02;99447.28;4935451;28;98379;-65
2024/02/08 05:45:56;;;;;;;;;;;;;;;9.88;49.48;99452.66;4965802;27;100372;-68
2024/02/08 05:48:27;;;;;;;;;;;;;;;9.88;49.07;99450.78;4933888;28;106657;-68
2024/02/08 05:50:56;;;;;;;;;;;;;;;9.88;48.97;99442.69;4950850;28;98301;-65
2024/02/08 05:53:24;;;;;;;;;;;;;;;9.88;49.57;99433.84;4950987;28;99052;-68
2024/02/08 05:55:52;;;;;;;;;;;;;;;9.87;49.52;99433.03;4927252;28;98210;-68
2024/02/08 05:58:19;;;;;;;;;;;;;;;9.87;49.60;99435.72;4918696;28;98350;-65
2024/02/08 06:01:01;;;;;;;;;;;;;;;9.87;49.50;99434.94;4943552;28;99207;-65
2024/02/08 06:03:33;;;;;;;;;;;;;;;9.86;49.08;99431.41;4911891;28;98003;-65
2024/02/08 06:06:16;;;;;;;;;;;;;;;9.86;49.45;99425.22;4935848;28;99584;-68
2024/02/08 06:08:42;;;;;;;;;;;;;;;9.84;49.27;99423.63;4926568;28;98621;-68
2024/02/08 06:11:23;;;;;;;;;;;;;;;9.82;49.14;99412.38;4948647;28;98329;-68
2024/02/08 06:13:58;;;;;;;;;;;;;;;9.82;49.13;99422.31;4957537;28;98814;-64
2024/02/08 06:19:14;;;;;;;;;;;;;;;9.80;49.23;99425.28;4952965;28;98067;-68
2024/02/08 06:21:41;;;;;;;;;;;;;;;9.80;49.30;99435.25;4944357;28;97964;-68
2024/02/08 06:27:13;;;;;;;;;;;;;;;9.79;49.14;99441.75;4952946;28;98183;-64
2024/02/08 06:29:42;;;;;;;;;;;;;;;9.79;49.04;99441.75;4931051;28;99552;-68
2024/02/08 06:32:34;;;;;;;;;;;;;;;9.78;49.11;99437.41;4956734;28;98041;-68
2024/02/08 06:35:11;;;;;;;;;;;;;;;9.78;49.08;99426.66;4957878;28;98102;-64
2024/02/08 06:37:44;;;;;;;;;;;;;;;9.78;49.02;99426.66;4950889;28;98474;-68
2024/02/08 06:40:22;;;;;;;;;;;;;;;9.79;49.15;99436.34;4955233;28;98022;-64
2024/02/08 07:37:59;;;;;;;;;;;;;;;10.58;48.75;99458.28;4932623;28;98003;-68
2024/02/08 07:40:34;;;;;;;;;;;;;;;10.67;48.68;99451.13;4944329;28;98293;-64
2024/02/08 07:45:48;;;;;;;;;;;;;;;10.82;48.53;99428.53;4955562;28;98487;-64
2024/02/08 07:48:37;;;;;;;;;;;;;;;11.02;48.10;99416.63;4967205;27;98121;-68
2024/02/08 07:51:03;;;;;;;;;;;;;;;11.24;48.37;99427.56;4950941;28;98122;-68
2024/02/08 07:53:35;;;;;;;;;;;;;;;11.43;48.22;99440.97;4956829;28;98208;-64
2024/02/08 07:56:29;;;;;;;;;;;;;;;11.42;48.29;99446.69;4955607;28;98326;-64
2024/02/08 07:59:03;;;;;;;;;;;;;;;11.37;48.47;99458.38;4957880;28;98131;-65
2024/02/08 08:01:38;;;;;;;;;;;;;;;11.38;48.30;99454.56;4956106;28;98122;-68
2024/02/08 08:04:08;;;;;;;;;;;;;;;11.42;48.50;99449.38;4960945;28;98358;-68
2024/02/08 08:06:46;;;;;;;;;;;;;;;11.47;48.11;99455.47;4935194;28;99830;-68
2024/02/08 08:09:18;;;;;;;;;;;;;;;11.53;48.22;99448.09;4956268;28;99495;-64
2024/02/08 08:11:57;;;;;;;;;;;;;;;11.62;48.31;99448.19;4931974;28;98264;-68
2024/02/08 08:17:08;;;;;;;;;;;;;;;11.76;48.17;99438.22;4932448;28;97942;-64
2024/02/08 08:19:46;;;;;;;;;;;;;;;11.80;48.31;99437.31;4953793;28;98029;-68
2024/02/08 08:22:19;;;;;;;;;;;;;;;11.84;48.17;99451.06;4952080;28;98449;-64
2024/02/08 08:25:11;;;;;;;;;;;;;;;11.87;48.20;99438.84;4929934;28;98888;-69
2024/02/08 08:27:52;;;;;;;;;;;;;;;11.93;48.30;99433.03;4920112;28;98344;-68
2024/02/08 08:30:27;;;;;;;;;;;;;;;11.99;48.22;99420.25;4925523;28;98451;-65
2024/02/08 08:40:49;;;;;;;;;;;;;;;12.40;47.84;99422.06;4953302;28;98090;-68
2024/02/08 08:43:25;;;;;;;;;;;;;;;12.52;48.01;99428.53;4948321;28;99610;-65
2024/02/08 08:45:59;;;;;;;;;;;;;;;12.62;47.87;99421.31;4953991;28;98237;-65
2024/02/08 08:48:30;;;;;;;;;;;;;;;12.72;47.71;99416.44;4955432;27;98022;-65
2024/02/08 08:51:01;;;;;;;;;;;;;;;12.82;47.86;99407.31;4952440;28;98347;-65
2024/02/08 08:53:28;;;;;;;;;;;;;;;12.91;47.80;99408.16;4930107;28;98050;-65
2024/02/08 08:55:57;;;;;;;;;;;;;;;12.98;47.80;99405.84;4942490;28;99463;-65
2024/02/08 08:58:39;;;;;;;;;;;;;;;13.07;48.00;99403.19;4939696;28;99659;-64
2024/02/08 09:01:15;;;;;;;;;;;;;;;13.17;47.76;99399.44;4942185;28;98329;-68
2024/02/08 09:03:45;;;;;;;;;;;;;;;13.32;47.66;99401.75;4969138;27;99738;-69
2024/02/08 09:06:15;;;;;;;;;;;;;;;13.44;47.54;99403.88;4954820;28;98512;-69
2024/02/08 09:08:44;;;;;;;;;;;;;;;13.48;47.80;99411.09;4937056;28;98351;-69
2024/02/08 09:11:12;;;;;;;;;;;;;;;13.54;47.79;99417.16;4939169;28;97989;-65
2024/02/08 09:13:51;;;;;;;;;;;;;;;13.64;47.92;99416.09;4933931;28;98140;-65
2024/02/08 09:21:32;;;;;;;;;;;;;;;14.07;47.56;99432.47;4962701;27;98077;-64
2024/02/08 09:24:11;;;;;;;;;;;;;;;14.19;47.35;99415.59;4936614;28;98709;-64
2024/02/08 09:26:52;;;;;;;;;;;;;;;14.30;47.48;99413.38;4944414;28;100250;-64
2024/02/08 09:29:24;;;;;;;;;;;;;;;14.41;47.52;99425.50;4954224;28;99741;-64
2024/02/08 09:31:58;;;;;;;;;;;;;;;14.49;47.40;99411.97;4954876;28;97942;-69
2024/02/08 09:34:37;;;;;;;;;;;;;;;14.57;47.43;99409.59;4905829;28;98664;-65
2024/02/08 09:37:09;;;;;;;;;;;;;;;14.61;47.54;99410.53;4927869;28;98475;-68
2024/02/08 09:42:30;;;;;;;;;;;;;;;14.67;47.62;99391.09;4948041;28;98209;-69
2024/02/08 09:45:41;;;;;;;;;;;;;;;14.63;47.57;99398.28;4929651;28;98041;-68
2024/02/08 09:48:06;;;;;;;;;;;;;;;14.63;47.87;99392.06;4938039;28;97989;-65
2024/02/08 09:50:36;;;;;;;;;;;;;;;14.68;47.68;99384.53;4922108;28;98403;-68
2024/02/08 09:53:27;;;;;;;;;;;;;;;14.75;47.76;99388.69;4930842;28;98508;-69
2024/02/08 09:55:55;;;;;;;;;;;;;;;14.80;47.79;99394.75;4951013;28;98401;-68
2024/02/08 09:58:37;;;;;;;;;;;;;;;14.82;47.73;99403.38;4944405;28;99498;-65
2024/02/08 10:01:21;;;;;;;;;;;;;;;14.82;47.63;99419.66;4938253;28;98061;-69
2024/02/08 10:03:48;;;;;;;;;;;;;;;14.85;47.65;99420.91;4943544;28;98261;-68
2024/02/08 10:06:23;;;;;;;;;;;;;;;14.89;47.91;99413.72;4942909;28;101903;-69
2024/02/08 10:08:54;;;;;;;;;;;;;;;14.88;47.82;99410.22;4912755;28;102140;-65
2024/02/08 10:11:24;;;;;;;;;;;;;;;14.87;47.74;99397.78;4942791;28;98601;-68
2024/02/08 10:14:01;;;;;;;;;;;;;;;14.89;48.03;99395.53;4962127;28;97992;-67
2024/02/08 10:16:42;;;;;;;;;;;;;;;14.97;47.81;99402.88;4949559;28;98361;-65
2024/02/08 10:19:43;;;;;;;;;;;;;;;15.03;47.74;99397.28;4964650;27;98120;-65
2024/02/08 10:22:26;;;;;;;;;;;;;;;15.08;47.61;99395.16;4947641;28;99410;-65
2024/02/08 10:27:21;;;;;;;;;;;;;;;15.25;47.70;99393.53;4933916;28;98111;-69
2024/02/08 10:29:50;;;;;;;;;;;;;;;15.36;47.61;99392.84;4921412;28;98230;-65
2024/02/08 10:32:19;;;;;;;;;;;;;;;15.40;47.68;99380.22;4944082;28;98081;-65
2024/02/08 10:34:52;;;;;;;;;;;;;;;15.45;47.73;99376.56;4951990;28;97946;-69
2024/02/08 10:43:03;;;;;;;;;;;;;;;15.68;47.62;99355.41;4952752;27;97987;-65
2024/02/08 10:45:43;;;;;;;;;;;;;;;15.78;47.42;99346.06;4950324;28;98249;-65
2024/02/08 10:48:13;;;;;;;;;;;;;;;15.87;47.46;99338.66;4924883;28;98047;-67
2024/02/08 10:50:41;;;;;;;;;;;;;;;15.93;47.32;99334.63;4938156;28;99763;-69
2024/02/08 10:53:16;;;;;;;;;;;;;;;15.98;47.36;99334.41;4953672;28;99499;-65
2024/02/08 10:55:52;;;;;;;;;;;;;;;16.03;47.71;99333.44;4933518;28;99660;-69
2024/02/08 10:58:27;;;;;;;;;;;;;;;16.08;47.59;99335.97;4956134;28;98036;-65
2024/02/08 11:03:52;;;;;;;;;;;;;;;16.19;47.52;99326.25;4933536;28;98136;-65
2024/02/08 11:06:32;;;;;;;;;;;;;;;16.19;47.49;99334.41;4953522;28;98237;-69
2024/02/08 11:09:14;;;;;;;;;;;;;;;16.16;47.68;99322.31;4926344;28;98540;-68
2024/02/08 11:11:59;;;;;;;;;;;;;;;16.19;47.60;99323.53;4937615;28;99535;-65
2024/02/08 11:14:28;;;;;;;;;;;;;;;16.18;47.70;99313.81;4929999;28;103017;-65
2024/02/08 11:16:54;;;;;;;;;;;;;;;16.20;47.65;99317.00;4938865;28;98185;-66
2024/02/08 11:19:22;;;;;;;;;;;;;;;16.23;47.58;99319.06;4922652;28;98029;-65
2024/02/08 11:21:49;;;;;;;;;;;;;;;16.25;47.57;99319.50;4951010;28;98377;-65
2024/02/08 11:24:28;;;;;;;;;;;;;;;16.25;47.74;99316.78;4952892;28;98384;-65
2024/02/08 11:27:01;;;;;;;;;;;;;;;16.23;47.59;99316.34;4938343;28;98129;-69
2024/02/08 11:29:28;;;;;;;;;;;;;;;16.18;47.75;99321.97;4954903;28;98404;-65
2024/02/08 11:31:57;;;;;;;;;;;;;;;16.14;47.92;99315.59;4958473;28;99403;-69
2024/02/08 11:34:33;;;;;;;;;;;;;;;16.12;47.93;99313.22;4951395;28;98611;-69
2024/02/08 11:37:15;;;;;;;;;;;;;;;16.08;47.82;99309.56;4966520;27;97892;-69
2024/02/08 11:39:46;;;;;;;;;;;;;;;16.05;48.02;99307.50;4933210;28;98421;-69
2024/02/08 11:42:17;;;;;;;;;;;;;;;16.03;48.20;99303.53;4919325;28;100031;-69
2024/02/08 11:44:43;;;;;;;;;;;;;;;16.00;48.09;99285.97;4952233;28;98332;-66
2024/02/08 11:47:19;;;;;;;;;;;;;;;15.97;48.10;99299.44;4918952;28;98770;-69
2024/02/08 11:50:01;;;;;;;;;;;;;;;15.92;48.14;99293.06;4951184;27;98435;-65
2024/02/08 11:52:27;;;;;;;;;;;;;;;15.86;48.41;99286.22;4951562;28;98067;-65
2024/02/08 11:55:06;;;;;;;;;;;;;;;15.80;48.22;99284.84;4949570;28;98058;-65
2024/02/08 11:57:36;;;;;;;;;;;;;;;15.74;48.38;99288.06;4926002;28;98392;-65
2024/02/08 12:00:15;;;;;;;;;;;;;;;15.72;48.29;99291.13;4905894;28;98271;-66
2024/02/08 12:02:57;;;;;;;;;;;;;;;15.68;48.34;99290.22;4940337;28;98430;-65
2024/02/08 12:05:24;;;;;;;;;;;;;;;15.61;48.29;99285.25;4919571;28;99562;-69
2024/02/08 12:07:50;;;;;;;;;;;;;;;15.56;48.20;99281.91;4941636;28;98354;-65
2024/02/08 12:10:17;;;;;;;;;;;;;;;15.49;48.39;99268.88;4954680;28;99919;-65
2024/02/08 12:12:44;;;;;;;;;;;;;;;15.44;48.44;99272.59;4924848;28;97859;-65
2024/02/08 12:15:11;;;;;;;;;;;;;;;15.39;48.38;99263.81;4940889;28;100552;-69
2024/02/08 12:17:40;;;;;;;;;;;;;;;15.34;48.40;99272.16;4953622;28;98249;-69
2024/02/08 12:20:09;;;;;;;;;;;;;;;15.31;48.57;99248.38;4956483;28;98080;-69
2024/02/08 12:22:36;;;;;;;;;;;;;;;15.29;48.41;99246.00;4951832;28;97999;-69
2024/02/08 12:25:04;;;;;;;;;;;;;;;15.27;48.50;99245.50;4952798;28;98486;-69
2024/02/08 12:27:29;;;;;;;;;;;;;;;15.27;48.51;99237.38;4956807;28;98527;-69
2024/02/08 12:29:56;;;;;;;;;;;;;;;15.26;48.26;99241.22;4932294;28;116019;-69
2024/02/08 12:32:27;;;;;;;;;;;;;;;15.27;48.37;99237.38;4933945;28;98851;-65
2024/02/08 12:34:56;;;;;;;;;;;;;;;15.25;48.40;99228.78;4958415;28;98261;-65
2024/02/08 12:37:29;;;;;;;;;;;;;;;15.21;48.57;99230.53;4927943;28;98515;-69
2024/02/08 12:39:55;;;;;;;;;;;;;;;15.15;48.46;99234.56;4959586;28;98359;-69
2024/02/08 12:42:23;;;;;;;;;;;;;;;15.11;48.58;99231.69;4934709;28;97879;-69
2024/02/08 12:44:50;;;;;;;;;;;;;;;15.10;48.34;99229.31;4954901;28;98350;-69
2024/02/08 12:47:19;;;;;;;;;;;;;;;15.09;48.59;99216.84;4953673;28;99840;-65
2024/02/08 12:49:46;;;;;;;;;;;;;;;15.08;48.45;99199.78;4950198;28;98277;-69
2024/02/08 12:52:15;;;;;;;;;;;;;;;15.07;48.59;99191.97;4950257;28;99685;-65
2024/02/08 12:54:42;;;;;;;;;;;;;;;15.03;48.67;99188.31;4927001;28;98107;-65
2024/02/08 12:57:10;;;;;;;;;;;;;;;15.02;48.62;99184.03;4939953;28;97977;-65
2024/02/08 12:59:43;;;;;;;;;;;;;;;15.03;48.43;99169.34;4942704;28;101981;-65
2024/02/08 13:02:17;;;;;;;;;;;;;;;15.05;48.34;99165.19;4926985;28;98229;-69
2024/02/08 13:04:44;;;;;;;;;;;;;;;15.05;48.54;99172.50;4955453;28;98225;-69
2024/02/08 13:07:17;;;;;;;;;;;;;;;15.05;48.59;99169.78;4962968;27;98170;-65
2024/02/08 13:09:44;;;;;;;;;;;;;;;15.05;48.25;99175.22;4958095;27;97966;-69
2024/02/08 13:12:14;;;;;;;;;;;;;;;15.06;48.32;99174.13;4948105;28;98124;-65
2024/02/08 13:14:50;;;;;;;;;;;;;;;15.10;48.50;99166.91;4942848;28;98004;-69
2024/02/08 13:17:19;;;;;;;;;;;;;;;15.13;48.52;99174.38;4952968;28;98663;-65
2024/02/08 13:19:49;;;;;;;;;;;;;;;15.08;48.57;99186.22;4920766;28;98261;-69
2024/02/08 13:22:18;;;;;;;;;;;;;;;15.04;48.48;99168.19;4921874;28;98861;-69
2024/02/08 13:24:45;;;;;;;;;;;;;;;15.01;48.51;99174.28;4931724;28;98142;-69
2024/02/08 13:27:11;;;;;;;;;;;;;;;14.97;48.37;99174.97;4919462;28;98629;-65
2024/02/08 13:29:37;;;;;;;;;;;;;;;14.96;48.49;99170.63;4957270;28;98387;-65
2024/02/08 13:32:03;;;;;;;;;;;;;;;14.96;48.64;99181.47;4957520;27;103915;-65
2024/02/08 13:34:30;;;;;;;;;;;;;;;14.96;48.42;99172.56;4975347;27;98442;-66
2024/02/08 13:36:58;;;;;;;;;;;;;;;15.01;48.40;99177.00;4915256;28;99495;-67
2024/02/08 13:39:25;;;;;;;;;;;;;;;15.03;48.26;99170.13;4960054;28;98009;-70
2024/02/08 13:41:51;;;;;;;;;;;;;;;15.05;48.40;99159.75;4944694;28;98714;-70
2024/02/08 13:44:20;;;;;;;;;;;;;;;15.05;48.51;99154.31;4949916;28;99966;-70
2024/02/08 13:46:48;;;;;;;;;;;;;;;15.05;48.45;99153.50;4941376;28;98159;-65
2024/02/08 13:49:15;;;;;;;;;;;;;;;15.04;48.46;99158.13;4943084;28;97886;-66
2024/02/08 13:51:44;;;;;;;;;;;;;;;15.01;48.39;99155.28;4962833;28;97928;-70
2024/02/08 13:54:13;;;;;;;;;;;;;;;14.99;48.35;99150.19;4943689;28;98319;-66
2024/02/08 13:56:40;;;;;;;;;;;;;;;14.93;48.38;99143.34;4942139;28;99455;-70
2024/02/08 13:59:06;;;;;;;;;;;;;;;14.87;48.63;99141.97;4925125;28;98278;-66
2024/02/08 14:01:32;;;;;;;;;;;;;;;14.82;48.52;99147.59;4924200;28;99528;-70
2024/02/08 14:03:59;;;;;;;;;;;;;;;14.78;48.72;99146.66;4929271;28;126250;-65
2024/02/08 14:06:25;;;;;;;;;;;;;;;14.73;48.89;99134.84;4931206;28;120852;-65
2024/02/08 14:08:54;;;;;;;;;;;;;;;14.71;48.61;99130.88;4961889;28;98192;-65
2024/02/08 14:11:25;;;;;;;;;;;;;;;14.67;48.74;99119.09;4924502;28;99027;-66
2024/02/08 14:13:51;;;;;;;;;;;;;;;14.61;48.77;99110.34;4961010;28;98960;-70
2024/02/08 14:16:21;;;;;;;;;;;;;;;14.55;48.83;99114.38;4949682;28;99652;-70
2024/02/08 14:18:52;;;;;;;;;;;;;;;14.46;48.68;99122.50;4926581;28;98157;-66
2024/02/08 14:21:20;;;;;;;;;;;;;;;14.37;48.97;99123.66;4910884;28;97967;-66
2024/02/08 14:23:49;;;;;;;;;;;;;;;14.32;49.07;99132.75;4960611;28;100073;-65
2024/02/08 14:28:47;;;;;;;;;;;;;;;14.21;48.71;99120.69;4964521;27;98195;-65
2024/02/08 14:31:16;;;;;;;;;;;;;;;14.14;49.10;99115.75;4946553;28;98428;-70
2024/02/08 14:33:45;;;;;;;;;;;;;;;14.09;48.83;99115.13;4954587;28;115313;-70
2024/02/08 14:36:14;;;;;;;;;;;;;;;14.04;49.10;99113.41;4938167;28;99417;-70
2024/02/08 14:38:41;;;;;;;;;;;;;;;13.96;49.26;99117.72;4926753;28;98232;-70
2024/02/08 14:41:07;;;;;;;;;;;;;;;13.89;48.90;99117.41;4937574;28;100217;-70
2024/02/08 14:43:33;;;;;;;;;;;;;;;13.81;49.29;99118.22;4918839;28;98386;-67
2024/02/08 14:46:03;;;;;;;;;;;;;;;13.74;49.26;99109.78;4901931;28;105032;-65
2024/02/08 14:48:37;;;;;;;;;;;;;;;13.68;49.04;99111.06;4948874;28;97891;-70
2024/02/08 14:53:45;;;;;;;;;;;;;;;13.56;49.00;99103.59;4934584;28;98268;-65
2024/02/08 14:56:18;;;;;;;;;;;;;;;13.50;49.32;99104.84;4949824;28;111185;-65
2024/02/08 14:58:56;;;;;;;;;;;;;;;13.45;49.07;99105.81;4932730;28;98132;-70
2024/02/08 15:01:42;;;;;;;;;;;;;;;13.38;49.42;99091.97;4929334;28;98403;-70
2024/02/08 15:04:21;;;;;;;;;;;;;;;13.32;49.11;99095.13;4947840;28;101795;-69
2024/02/08 15:15:03;;;;;;;;;;;;;;;13.09;49.12;99087.16;4895582;28;98366;-65
2024/02/08 15:17:29;;;;;;;;;;;;;;;13.05;49.41;99088.91;4945572;28;98516;-65
2024/02/08 15:20:36;;;;;;;;;;;;;;;12.99;49.21;99074.72;4949788;28;98302;-70
2024/02/08 15:22:49;;;;;;;;;;;;;;;12.96;49.17;99066.44;4921046;28;99188;-70
2024/02/08 15:25:19;;;;;;;;;;;;;;;12.91;49.24;99070.09;4961252;27;98968;-65
2024/02/08 15:27:52;;;;;;;;;;;;;;;12.87;49.22;99071.84;4956264;28;99634;-65
2024/02/08 15:30:36;;;;;;;;;;;;;;;12.81;49.36;99067.72;4964537;27;102172;-65
2024/02/08 15:33:16;;;;;;;;;;;;;;;12.77;49.37;99069.44;4930470;28;98348;-65
2024/02/08 15:35:51;;;;;;;;;;;;;;;12.72;49.18;99067.66;4948830;28;98208;-66